CheckWX is a tool to help pilots better visualize weather data.  It is not intended as a substitute for an official pre-flight weather briefing.

15:25:25 UTC

SPJR TAF
Mayor General FAP Armando Revoredo Iglesias Airport
Cajamarca, Peru
SPJR 231100Z 2312/2412 VRB02KT 9999 SCT023 BKN043 TX21/2319Z TN12/2411Z TEMPO 2312/2314 5000 BR BKN010 OVC040 BECMG 2318/2321 14008KT TEMPO 2419/2422 RA SCT026 OVC040

Mar-23@
12:00 UTC

Mar-23 @ 12:00 UTC

Mar-23@
18:00 UTC

Mar-23 @ 18:00 UTC

SPJR 231100Z 2312/2412 VRB02KT 9999 SCT023 BKN043 TX21/2319Z TN12/2411Z
Wind
  • Variable at 2 KTS
Cloud Levels
  • Scattered at 2,300' AGL
  • Broken at 4,300' AGL

Mar-23@
12:00 UTC

Mar-23 @ 12:00 UTC

Mar-23@
14:00 UTC

Mar-23 @ 14:00 UTC

TEMPO 2312/2314 5000 BR BKN010 OVC040

Expired

Conditions
Mist
Cloud Levels
  • Broken at 1,000' AGL
  • Overcast at 4,000' AGL

Mar-23@
18:00 UTC

Mar-23 @ 18:00 UTC

Mar-24@
12:00 UTC

Mar-24 @ 12:00 UTC

BECMG 2318/2321 14008KT

Becoming

Becoming Conditions expected by Sat, Mar 23, 2019 @ 21:00 UTC

Wind
  • 140° at 8 KTS
Cloud Levels
  • Scattered at 2,300' AGL
  • Broken at 4,300' AGL

Mar-24@
19:00 UTC

Mar-24 @ 19:00 UTC

Mar-24@
22:00 UTC

Mar-24 @ 22:00 UTC

TEMPO 2419/2422 RA SCT026 OVC040

Temporary

Temporary Changes expected for less than half the time period

Conditions
Rain
Cloud Levels
  • Scattered at 2,600' AGL
  • Overcast at 4,000' AGL